createdAt,value
2023-11-18T00:00:35.794Z,94.07
2023-11-18T00:03:06.811Z,93.90
2023-11-18T00:05:35.756Z,93.74
2023-11-18T00:08:04.206Z,93.80
2023-11-18T00:10:32.824Z,93.90
2023-11-18T00:13:02.868Z,93.44
2023-11-18T00:15:31.358Z,94.11
2023-11-18T00:17:59.789Z,93.97
2023-11-18T00:20:32.353Z,93.89
2023-11-18T00:23:02.126Z,94.13
2023-11-18T00:25:31.126Z,93.92
2023-11-18T00:27:59.662Z,94.27
2023-11-18T00:30:29.330Z,93.88
2023-11-18T00:32:57.909Z,94.16
2023-11-18T00:35:32.938Z,93.79
2023-11-18T00:38:01.562Z,94.19
2023-11-18T00:40:31.030Z,94.05
2023-11-18T00:42:59.746Z,94.23
2023-11-18T00:45:28.545Z,94.27
2023-11-18T00:47:57.276Z,94.35
2023-11-18T00:50:25.704Z,94.62
2023-11-18T00:52:55.559Z,94.55
2023-11-18T00:55:24.130Z,94.77
2023-11-18T00:57:52.592Z,94.83
2023-11-18T01:00:23.238Z,94.44
2023-11-18T01:02:52.605Z,94.76
2023-11-18T01:05:21.300Z,94.59
2023-11-18T01:07:50.842Z,94.62
2023-11-18T01:10:20.907Z,94.74
2023-11-18T01:12:49.319Z,94.70
2023-11-18T01:15:18.010Z,94.71
2023-11-18T01:17:47.466Z,94.85
2023-11-18T01:20:22.259Z,94.79
2023-11-18T01:22:51.734Z,94.76
2023-11-18T01:25:21.697Z,95.09
2023-11-18T01:27:50.195Z,94.78
2023-11-18T01:30:19.657Z,94.82
2023-11-18T01:32:48.302Z,94.97
2023-11-18T01:35:17.969Z,94.61
2023-11-18T01:37:46.461Z,94.71
2023-11-18T01:40:16.732Z,94.70
2023-11-18T01:42:47.823Z,94.88
2023-11-18T01:45:17.675Z,94.59
2023-11-18T01:47:49.611Z,94.94
2023-11-18T01:50:19.822Z,94.70
2023-11-18T01:52:49.957Z,94.69
2023-11-18T01:55:18.854Z,94.59
2023-11-18T01:57:50.230Z,94.75
2023-11-18T02:00:19.811Z,94.61
2023-11-18T02:02:49.157Z,94.77
2023-11-18T02:05:19.399Z,94.83
2023-11-18T02:07:48.590Z,95.06
2023-11-18T02:10:18.800Z,95.03
2023-11-18T02:12:57.927Z,94.87
2023-11-18T02:15:27.794Z,94.86
2023-11-18T02:18:00.075Z,94.99
2023-11-18T02:20:30.071Z,95.06
2023-11-18T02:22:59.062Z,94.74
2023-11-18T02:25:30.446Z,94.81
2023-11-18T02:28:00.790Z,94.68
2023-11-18T02:30:32.236Z,94.76
2023-11-18T02:33:06.698Z,94.96
2023-11-18T02:35:38.582Z,94.82
2023-11-18T02:38:08.992Z,95.00
2023-11-18T02:40:40.450Z,95.08
2023-11-18T02:43:11.583Z,94.85
2023-11-18T02:45:42.653Z,95.05
2023-11-18T02:48:11.726Z,95.40
2023-11-18T02:50:42.909Z,95.07
2023-11-18T02:53:11.765Z,94.90
2023-11-18T02:55:42.291Z,94.79
2023-11-18T02:58:12.300Z,94.83
2023-11-18T03:00:40.662Z,94.54
2023-11-18T03:03:09.056Z,94.47
2023-11-18T03:05:38.615Z,94.43
2023-11-18T03:08:08.276Z,94.43
2023-11-18T03:10:37.305Z,94.45
2023-11-18T03:13:05.785Z,94.50
2023-11-18T03:15:36.865Z,94.58
2023-11-18T03:18:07.000Z,94.36
2023-11-18T03:20:36.032Z,94.45
2023-11-18T03:23:08.928Z,94.20
2023-11-18T03:25:39.168Z,94.65
2023-11-18T03:28:09.218Z,94.60
2023-11-18T03:30:39.255Z,94.51
2023-11-18T03:33:12.333Z,94.19
2023-11-18T03:35:41.021Z,94.42
2023-11-18T03:38:09.391Z,94.70
2023-11-18T03:40:38.291Z,94.70
2023-11-18T03:43:06.747Z,94.79
2023-11-18T03:45:35.436Z,94.39
2023-11-18T03:48:05.480Z,94.68
2023-11-18T03:50:34.018Z,94.32
2023-11-18T03:53:04.508Z,94.54
2023-11-18T03:55:33.127Z,94.51
2023-11-18T03:58:01.697Z,94.41
2023-11-18T04:00:31.188Z,94.76
2023-11-18T04:02:59.768Z,94.54
2023-11-18T04:05:30.252Z,94.77
2023-11-18T04:07:58.709Z,94.71
2023-11-18T04:10:27.319Z,94.87
2023-11-18T04:12:55.773Z,94.32
2023-11-18T04:15:25.439Z,94.68
2023-11-18T04:17:54.033Z,94.46
2023-11-18T04:20:22.846Z,94.51
2023-11-18T04:22:52.730Z,94.78
2023-11-18T04:25:22.342Z,95.03
2023-11-18T04:27:50.828Z,95.09
2023-11-18T04:30:20.478Z,94.90
2023-11-18T04:32:49.106Z,94.67
2023-11-18T04:35:18.286Z,94.99
2023-11-18T04:37:47.281Z,94.82
2023-11-18T04:40:17.862Z,94.69
2023-11-18T04:42:47.342Z,94.64
2023-11-18T04:45:16.502Z,95.07
2023-11-18T04:47:46.355Z,94.91
2023-11-18T04:50:16.117Z,94.94
2023-11-18T04:52:44.835Z,94.78
2023-11-18T04:55:14.815Z,95.07
2023-11-18T04:57:44.883Z,95.00
2023-11-18T05:00:19.113Z,95.10
2023-11-18T05:02:49.350Z,95.08
2023-11-18T05:05:19.855Z,94.64
2023-11-18T05:07:48.737Z,95.33
2023-11-18T05:10:17.318Z,94.92
2023-11-18T05:12:56.726Z,94.70
2023-11-18T05:15:26.291Z,94.96
2023-11-18T05:17:54.976Z,94.78
2023-11-18T05:20:24.464Z,94.79
2023-11-18T05:22:52.913Z,94.80
2023-11-18T05:25:21.567Z,94.88
2023-11-18T05:27:51.365Z,94.73
2023-11-18T05:30:20.224Z,94.76
2023-11-18T05:32:48.589Z,94.75
2023-11-18T05:35:17.214Z,94.67
2023-11-18T05:37:45.724Z,94.91
2023-11-18T05:40:17.056Z,94.52
2023-11-18T05:42:49.466Z,94.62
2023-11-18T05:45:29.346Z,94.43
2023-11-18T05:47:58.429Z,94.69
2023-11-18T05:50:27.310Z,94.31
2023-11-18T05:52:56.639Z,94.47
2023-11-18T05:55:25.060Z,94.39
2023-11-18T05:57:53.671Z,94.55
2023-11-18T06:00:30.910Z,94.25
2023-11-18T06:03:05.321Z,94.15
2023-11-18T06:05:36.390Z,94.08
2023-11-18T06:08:05.890Z,94.03
2023-11-18T06:10:35.469Z,94.02
2023-11-18T06:13:05.616Z,94.22
2023-11-18T06:15:37.073Z,93.83
2023-11-18T06:18:06.508Z,94.08
2023-11-18T06:20:37.362Z,93.97
2023-11-18T06:23:05.772Z,93.90
2023-11-18T06:25:36.798Z,93.80
2023-11-18T06:28:09.056Z,93.91
2023-11-18T06:30:39.882Z,93.82
2023-11-18T06:33:08.433Z,93.79
2023-11-18T06:35:36.919Z,93.80
2023-11-18T06:38:05.362Z,93.58
2023-11-18T06:40:34.044Z,93.71
2023-11-18T06:43:03.974Z,93.80
2023-11-18T06:45:33.418Z,93.85
2023-11-18T06:48:06.785Z,93.88
2023-11-18T06:50:36.438Z,93.79
2023-11-18T06:53:05.654Z,93.63
2023-11-18T06:55:36.354Z,93.84
2023-11-18T06:58:04.769Z,93.51
2023-11-18T07:00:33.870Z,93.55
2023-11-18T07:03:04.001Z,93.26
2023-11-18T07:05:32.570Z,92.98
2023-11-18T07:08:01.085Z,93.33
2023-11-18T07:10:29.580Z,92.94
2023-11-18T07:12:57.893Z,92.90
2023-11-18T07:15:26.834Z,92.90
2023-11-18T07:17:56.994Z,92.91
2023-11-18T07:20:27.215Z,93.08
2023-11-18T07:22:56.302Z,92.86
2023-11-18T07:25:24.884Z,92.50
2023-11-18T07:27:53.235Z,92.72
2023-11-18T07:30:21.643Z,92.60
2023-11-18T07:32:50.522Z,92.56
2023-11-18T07:35:19.209Z,92.55
2023-11-18T07:37:49.127Z,92.51
2023-11-18T07:40:23.454Z,92.56
2023-11-18T07:42:51.990Z,92.44
2023-11-18T07:45:20.569Z,92.23
2023-11-18T07:47:50.235Z,92.31
2023-11-18T07:50:21.178Z,92.35
2023-11-18T07:52:51.889Z,92.01
2023-11-18T07:55:20.457Z,91.41
2023-11-18T07:57:48.926Z,91.22
2023-11-18T08:00:17.844Z,91.03
2023-11-18T08:02:49.989Z,90.86
2023-11-18T08:05:20.365Z,90.89
2023-11-18T08:07:50.356Z,90.41
2023-11-18T08:10:20.607Z,89.94
2023-11-18T08:12:49.477Z,89.87
2023-11-18T08:15:18.032Z,89.45
2023-11-18T08:17:46.594Z,89.18
2023-11-18T08:20:16.273Z,88.95
2023-11-18T08:22:46.504Z,88.88
2023-11-18T08:25:18.613Z,88.99
2023-11-18T08:27:51.523Z,88.75
2023-11-18T08:30:21.957Z,88.94
2023-11-18T08:32:50.584Z,88.58
2023-11-18T08:35:19.141Z,87.88
2023-11-18T08:37:48.929Z,87.72
2023-11-18T08:40:23.102Z,87.42
2023-11-18T08:42:52.769Z,87.04
2023-11-18T08:45:23.190Z,86.67
2023-11-18T08:47:54.449Z,86.57
2023-11-18T08:50:25.300Z,86.09
2023-11-18T08:52:59.496Z,85.82
2023-11-18T08:55:42.149Z,85.95
2023-11-18T08:58:21.605Z,83.74
2023-11-18T09:00:55.800Z,83.24
2023-11-18T09:03:36.947Z,81.49
2023-11-18T09:06:19.018Z,79.71
2023-11-18T09:08:54.433Z,79.21
2023-11-18T09:11:28.485Z,80.29
2023-11-18T09:14:01.493Z,80.57
2023-11-18T09:16:31.866Z,80.52
2023-11-18T09:19:03.321Z,80.82
2023-11-18T09:21:36.779Z,79.76
2023-11-18T09:24:09.253Z,80.42
2023-11-18T09:26:39.310Z,80.16
2023-11-18T09:29:09.751Z,80.88
2023-11-18T09:31:38.701Z,80.33
2023-11-18T09:34:08.037Z,80.33
2023-11-18T09:36:37.435Z,80.99
2023-11-18T09:39:06.102Z,81.05
2023-11-18T09:41:36.219Z,81.07
2023-11-18T09:44:09.129Z,80.80
2023-11-18T09:46:42.011Z,80.98
2023-11-18T09:49:19.644Z,80.74
2023-11-18T09:51:49.385Z,81.01
2023-11-18T09:54:26.276Z,80.66
2023-11-18T09:57:10.127Z,80.75
2023-11-18T09:59:48.838Z,80.26
2023-11-18T10:02:21.708Z,79.96
2023-11-18T10:04:59.265Z,79.07
2023-11-18T10:07:34.305Z,79.13
2023-11-18T10:10:04.370Z,78.88
2023-11-18T10:12:41.718Z,78.74
2023-11-18T10:15:20.169Z,78.67
2023-11-18T10:17:58.497Z,78.45
2023-11-18T10:20:47.115Z,78.74
2023-11-18T10:23:20.989Z,78.82
2023-11-18T10:25:50.617Z,78.88
2023-11-18T10:28:29.129Z,78.79
2023-11-18T10:31:04.585Z,78.15
2023-11-18T10:33:34.139Z,77.68
2023-11-18T10:36:05.365Z,78.09
2023-11-18T10:38:38.103Z,77.51
2023-11-18T10:41:07.626Z,77.60
2023-11-18T10:43:37.454Z,77.77
2023-11-18T10:46:14.853Z,77.34
2023-11-18T10:48:44.392Z,77.81
2023-11-18T10:51:14.559Z,78.05
2023-11-18T10:53:54.677Z,77.63
2023-11-18T10:56:28.201Z,77.40
2023-11-18T10:58:59.454Z,77.53
2023-11-18T11:01:34.497Z,77.21
2023-11-18T11:04:05.944Z,76.74
2023-11-18T11:06:35.967Z,77.20
2023-11-18T11:09:11.132Z,77.17
2023-11-18T11:11:44.758Z,77.64
2023-11-18T11:14:17.391Z,77.04
2023-11-18T11:16:55.038Z,76.96
2023-11-18T11:19:29.236Z,77.08
2023-11-18T11:22:08.641Z,77.83
2023-11-18T11:24:57.203Z,77.41
2023-11-18T11:27:37.127Z,77.86
2023-11-18T11:30:12.454Z,77.73
2023-11-18T11:32:53.187Z,77.34
2023-11-18T11:35:26.162Z,77.42
2023-11-18T11:38:04.221Z,77.08
2023-11-18T11:40:35.946Z,77.19
2023-11-18T11:43:07.297Z,77.25
2023-11-18T11:45:37.645Z,76.74
2023-11-18T11:48:16.459Z,76.86
2023-11-18T11:51:04.897Z,77.07
2023-11-18T11:53:40.386Z,77.18
2023-11-18T11:56:15.565Z,77.51
2023-11-18T11:58:45.992Z,77.72
2023-11-18T12:01:24.865Z,77.53
2023-11-18T12:03:59.301Z,77.33
2023-11-18T12:06:29.583Z,77.56
2023-11-18T12:08:59.604Z,77.82
2023-11-18T12:11:30.844Z,78.12
2023-11-18T12:14:14.531Z,77.94
2023-11-18T12:17:14.865Z,78.49
2023-11-18T12:19:49.277Z,78.62
2023-11-18T12:22:26.076Z,78.36
2023-11-18T12:25:33.705Z,78.35
2023-11-18T12:28:10.192Z,78.77
2023-11-18T12:30:52.942Z,78.64
2023-11-18T12:33:24.610Z,78.88
2023-11-18T12:36:23.568Z,78.42
2023-11-18T12:39:39.031Z,78.94
2023-11-18T12:42:13.063Z,79.30
2023-11-18T12:45:02.881Z,79.53
2023-11-18T12:47:36.140Z,79.50
2023-11-18T12:50:18.452Z,79.46
2023-11-18T12:52:50.578Z,79.93
2023-11-18T12:55:21.259Z,79.63
2023-11-18T12:57:49.991Z,79.75
2023-11-18T13:00:28.211Z,80.21
2023-11-18T13:02:59.480Z,80.30
2023-11-18T13:05:31.688Z,80.21
2023-11-18T13:08:02.946Z,80.81
2023-11-18T13:10:32.072Z,80.58
2023-11-18T13:13:02.776Z,80.85
2023-11-18T13:15:32.134Z,81.04
2023-11-18T13:18:02.387Z,81.07
2023-11-18T13:20:33.049Z,81.53
2023-11-18T13:23:02.345Z,81.21
2023-11-18T13:25:31.860Z,81.60
2023-11-18T13:28:00.581Z,81.65
2023-11-18T13:30:30.224Z,81.37
2023-11-18T13:32:58.808Z,82.13
2023-11-18T13:35:27.684Z,81.61
2023-11-18T13:37:57.498Z,81.69
2023-11-18T13:40:27.442Z,81.70
2023-11-18T13:43:06.608Z,81.90
2023-11-18T13:45:38.587Z,81.68
2023-11-18T13:48:10.107Z,82.16
2023-11-18T13:50:39.561Z,81.88
2023-11-18T13:53:09.658Z,81.94
2023-11-18T13:55:40.331Z,82.47
2023-11-18T13:58:11.930Z,82.43
2023-11-18T14:00:40.869Z,82.72
2023-11-18T14:03:13.357Z,82.65
2023-11-18T14:05:47.510Z,82.85
2023-11-18T14:08:21.214Z,83.05
2023-11-18T14:11:02.285Z,82.95
2023-11-18T14:13:32.809Z,83.08
2023-11-18T14:16:01.494Z,83.09
2023-11-18T14:18:30.159Z,83.33
2023-11-18T14:20:59.298Z,83.49
2023-11-18T14:23:27.737Z,83.04
2023-11-18T14:25:57.601Z,83.71
2023-11-18T14:28:27.689Z,83.55
2023-11-18T14:30:56.130Z,83.87
2023-11-18T14:33:24.585Z,83.96
2023-11-18T14:35:52.946Z,84.03
2023-11-18T14:38:21.782Z,83.77
2023-11-18T14:40:50.615Z,84.28
2023-11-18T14:43:20.392Z,83.94
2023-11-18T14:45:48.942Z,84.01
2023-11-18T14:48:18.030Z,83.82
2023-11-18T14:50:46.500Z,83.98
2023-11-18T14:53:14.975Z,83.99
2023-11-18T14:55:44.658Z,83.77
2023-11-18T14:58:14.611Z,83.95
2023-11-18T15:00:44.373Z,83.98
2023-11-18T15:03:13.169Z,84.07
2023-11-18T15:05:41.746Z,84.23
2023-11-18T15:08:10.974Z,84.04
2023-11-18T15:10:40.973Z,84.24
2023-11-18T15:13:13.893Z,84.26
2023-11-18T15:15:42.365Z,84.09
2023-11-18T15:18:15.742Z,83.97
2023-11-18T15:20:47.911Z,84.00
2023-11-18T15:23:19.499Z,84.04
2023-11-18T15:25:49.045Z,83.91
2023-11-18T15:28:18.396Z,83.96
2023-11-18T15:30:47.571Z,84.04
2023-11-18T15:33:17.524Z,84.19
2023-11-18T15:35:46.927Z,84.13
2023-11-18T15:38:18.957Z,84.28
2023-11-18T15:40:52.264Z,84.36
2023-11-18T15:43:21.390Z,84.20
2023-11-18T15:45:50.434Z,84.33
2023-11-18T15:48:20.535Z,84.36
2023-11-18T15:50:48.973Z,84.00
2023-11-18T15:53:17.381Z,84.32
2023-11-18T15:55:49.122Z,84.67
2023-11-18T15:58:20.407Z,84.42
2023-11-18T16:00:53.514Z,84.35
2023-11-18T16:03:24.074Z,84.32
2023-11-18T16:05:52.911Z,84.38
2023-11-18T16:08:21.373Z,84.30
2023-11-18T16:10:50.066Z,84.44
2023-11-18T16:13:18.736Z,84.29
2023-11-18T16:15:47.360Z,84.17
2023-11-18T16:18:15.748Z,84.25
2023-11-18T16:20:45.706Z,84.31
2023-11-18T16:23:14.102Z,84.16
2023-11-18T16:25:43.300Z,84.20
2023-11-18T16:28:14.689Z,83.91
2023-11-18T16:30:43.257Z,83.52
2023-11-18T16:33:12.096Z,83.93
2023-11-18T16:35:40.717Z,83.95
2023-11-18T16:38:10.562Z,83.99
2023-11-18T16:40:40.174Z,84.04
2023-11-18T16:43:08.694Z,83.87
2023-11-18T16:45:38.525Z,83.82
2023-11-18T16:48:07.586Z,84.01
2023-11-18T16:50:37.527Z,84.06
2023-11-18T16:53:07.418Z,83.69
2023-11-18T16:55:37.700Z,83.98
2023-11-18T16:58:08.137Z,83.74
2023-11-18T17:00:38.200Z,83.88
2023-11-18T17:03:06.891Z,83.83
2023-11-18T17:05:35.609Z,84.01
2023-11-18T17:08:06.509Z,83.62
2023-11-18T17:10:35.312Z,83.68
2023-11-18T17:13:05.798Z,83.68
2023-11-18T17:15:34.318Z,83.63
2023-11-18T17:18:04.109Z,83.68
2023-11-18T17:20:34.440Z,83.65
2023-11-18T17:23:03.816Z,83.75
2023-11-18T17:25:32.673Z,83.61
2023-11-18T17:28:03.627Z,83.38
2023-11-18T17:30:36.126Z,83.28
2023-11-18T17:33:05.391Z,83.23
2023-11-18T17:35:33.845Z,83.28
2023-11-18T17:38:02.479Z,83.12
2023-11-18T17:40:31.058Z,83.02
2023-11-18T17:42:59.517Z,82.83
2023-11-18T17:45:28.455Z,82.85
2023-11-18T17:47:59.010Z,82.87
2023-11-18T17:50:28.127Z,82.77
2023-11-18T17:52:58.540Z,82.54
2023-11-18T17:55:28.936Z,82.47
2023-11-18T17:57:57.811Z,82.56
2023-11-18T18:00:28.666Z,82.61
2023-11-18T18:02:58.715Z,82.51
2023-11-18T18:05:27.153Z,82.91
2023-11-18T18:07:55.835Z,82.52
2023-11-18T18:10:28.792Z,82.85
2023-11-18T18:12:58.453Z,82.70
2023-11-18T18:15:28.051Z,82.76
2023-11-18T18:17:58.330Z,82.93
2023-11-18T18:20:27.090Z,83.00
2023-11-18T18:22:55.725Z,82.60
2023-11-18T18:25:24.161Z,82.83
2023-11-18T18:27:52.908Z,82.51
2023-11-18T18:30:21.544Z,82.52
2023-11-18T18:32:51.228Z,82.94
2023-11-18T18:35:21.527Z,82.95
2023-11-18T18:37:50.732Z,82.68
2023-11-18T18:40:23.964Z,82.74
2023-11-18T18:42:52.763Z,82.66
2023-11-18T18:45:21.379Z,82.80
2023-11-18T18:47:50.054Z,82.91
2023-11-18T18:50:19.595Z,82.95
2023-11-18T18:52:49.837Z,82.88
2023-11-18T18:55:18.275Z,83.25
2023-11-18T18:57:47.103Z,82.90
2023-11-18T19:00:16.009Z,83.09
2023-11-18T19:02:44.622Z,82.89
2023-11-18T19:05:15.926Z,83.00
2023-11-18T19:07:46.705Z,83.26
2023-11-18T19:10:17.747Z,83.20
2023-11-18T19:12:46.736Z,83.67
2023-11-18T19:15:17.517Z,83.37
2023-11-18T19:17:46.874Z,83.41
2023-11-18T19:20:16.024Z,83.31
2023-11-18T19:22:45.114Z,83.41
2023-11-18T19:25:16.843Z,83.46
2023-11-18T19:27:47.787Z,83.60
2023-11-18T19:30:16.305Z,83.55
2023-11-18T19:32:45.216Z,83.47
2023-11-18T19:35:16.164Z,83.90
2023-11-18T19:37:45.397Z,83.46
2023-11-18T19:40:14.885Z,83.96
2023-11-18T19:42:43.787Z,83.72
2023-11-18T19:45:14.539Z,83.78
2023-11-18T19:47:43.515Z,83.44
2023-11-18T19:50:13.498Z,83.77
2023-11-18T19:52:42.425Z,83.91
2023-11-18T19:55:11.470Z,83.94
2023-11-18T19:57:40.054Z,83.93
2023-11-18T20:00:09.942Z,83.93
2023-11-18T20:02:43.502Z,83.95
2023-11-18T20:05:12.343Z,84.09
2023-11-18T20:07:41.255Z,84.13
2023-11-18T20:10:10.788Z,84.24
2023-11-18T20:12:40.188Z,84.03
2023-11-18T20:15:12.928Z,83.99
2023-11-18T20:17:47.096Z,84.05
2023-11-18T20:20:15.909Z,84.27
2023-11-18T20:22:44.626Z,84.02
2023-11-18T20:25:15.823Z,84.30
2023-11-18T20:27:44.337Z,84.04
2023-11-18T20:30:14.069Z,84.05
2023-11-18T20:32:45.339Z,84.43
2023-11-18T20:35:14.083Z,84.47
2023-11-18T20:37:42.796Z,84.31
2023-11-18T20:40:14.788Z,84.81
2023-11-18T20:42:43.548Z,84.63
2023-11-18T20:45:15.347Z,84.89
2023-11-18T20:47:46.325Z,85.06
2023-11-18T20:50:15.811Z,84.94
2023-11-18T20:52:45.123Z,84.95
2023-11-18T20:55:14.282Z,85.20
2023-11-18T20:57:42.641Z,85.24
2023-11-18T21:00:13.776Z,85.31
2023-11-18T21:02:42.750Z,85.42
2023-11-18T21:05:13.124Z,85.24
2023-11-18T21:07:41.819Z,85.53
2023-11-18T21:10:17.220Z,85.30
2023-11-18T21:12:49.031Z,85.58
2023-11-18T21:15:17.511Z,85.39
2023-11-18T21:17:45.938Z,85.73
2023-11-18T21:20:16.009Z,85.92
2023-11-18T21:22:44.964Z,85.91
2023-11-18T21:25:13.836Z,85.64
2023-11-18T21:27:42.688Z,86.01
2023-11-18T21:30:12.069Z,85.77
2023-11-18T21:32:43.731Z,86.05
2023-11-18T21:35:15.655Z,85.98
2023-11-18T21:37:46.274Z,85.95
2023-11-18T21:40:15.467Z,86.20
2023-11-18T21:42:44.602Z,86.09
2023-11-18T21:45:15.064Z,86.38
2023-11-18T21:47:46.332Z,86.61
2023-11-18T21:50:16.245Z,86.70
2023-11-18T21:52:46.150Z,86.95
2023-11-18T21:55:15.657Z,87.09
2023-11-18T21:57:44.203Z,87.35
2023-11-18T22:00:14.231Z,87.27
2023-11-18T22:02:45.387Z,87.05
2023-11-18T22:05:15.689Z,86.96
2023-11-18T22:07:46.582Z,86.76
2023-11-18T22:10:16.642Z,87.11
2023-11-18T22:12:45.507Z,86.85
2023-11-18T22:15:17.814Z,87.18
2023-11-18T22:17:48.198Z,87.42
2023-11-18T22:20:18.101Z,87.31
2023-11-18T22:22:50.060Z,87.40
2023-11-18T22:25:19.480Z,87.43
2023-11-18T22:27:49.267Z,87.46
2023-11-18T22:30:18.414Z,87.42
2023-11-18T22:32:48.973Z,87.53
2023-11-18T22:35:20.322Z,87.75
2023-11-18T22:37:50.458Z,87.84
2023-11-18T22:40:20.047Z,87.39
2023-11-18T22:42:48.928Z,87.50
2023-11-18T22:45:28.201Z,87.62
2023-11-18T22:47:57.936Z,87.00
2023-11-18T22:50:26.549Z,87.59
2023-11-18T22:52:58.905Z,87.59
2023-11-18T22:55:27.845Z,87.41
2023-11-18T22:57:57.778Z,87.20
2023-11-18T23:00:52.119Z,87.41
2023-11-18T23:03:21.084Z,87.33
2023-11-18T23:05:49.733Z,87.21
2023-11-18T23:08:23.268Z,87.13
2023-11-18T23:10:52.597Z,87.14
2023-11-18T23:13:24.028Z,87.20
2023-11-18T23:15:56.830Z,87.02
2023-11-18T23:18:25.491Z,86.69
2023-11-18T23:20:54.380Z,86.98
2023-11-18T23:23:25.606Z,87.03
2023-11-18T23:25:54.389Z,87.12
2023-11-18T23:28:22.768Z,87.20
2023-11-18T23:30:51.466Z,87.19
2023-11-18T23:33:19.993Z,87.31
2023-11-18T23:35:48.411Z,87.28
2023-11-18T23:38:18.883Z,87.02
2023-11-18T23:40:49.185Z,86.93
2023-11-18T23:43:17.827Z,87.11
2023-11-18T23:45:46.435Z,87.23
2023-11-18T23:48:15.190Z,86.72
2023-11-18T23:50:43.610Z,86.74
2023-11-18T23:53:12.694Z,86.70
2023-11-18T23:55:41.067Z,86.61
2023-11-18T23:58:10.910Z,86.85
